Wolke Sonne

Wetter Ammerndorf

Gehe zu: Roßtal | Roßtal 2

Tageswerte vom Mittwoch, 23.01.2019

Optionen

Tag:
Erweitert:

Alle Werte vom Mittwoch, 23.01.2019

Einen Moment bitte, die Daten werden aufbereitet...

UhrzeitTemperaturBoden 10cmBoden 20cmFeuchteLuftdruckNiederschlagEvapotranspirationWindWindböenWindrichtungSolarstrahlungUV-IndexSonne?Uhrzeit
Diagramm IconDiagramm IconDiagramm IconDiagramm IconDiagramm IconDiagramm IconDiagramm IconDiagramm IconDiagramm IconDiagramm IconDiagramm IconDiagramm IconDiagramm Icon
00:00-4,5 °C 0,0 °C 1,1 °C 89 % 1006,3 hPa 0,0 mm - 6,5 km/h 14,4 km/h SSO 0,0 W/qm 0,0 nein 00:00
00:05-4,5 °C 0,0 °C 1,1 °C 89 % 1006,3 hPa 0,0 mm 0,0 mm 4,7 km/h 14,4 km/h SSW 0,0 W/qm 0,0 nein 00:05
00:10-4,6 °C 0,0 °C 1,1 °C 89 % 1006,2 hPa 0,0 mm 0,0 mm 4,7 km/h 11,2 km/h SSO 0,0 W/qm 0,0 nein 00:10
00:15-4,6 °C 0,0 °C 1,1 °C 89 % 1006,2 hPa 0,0 mm - 4,7 km/h 11,2 km/h SW 0,0 W/qm 0,0 nein 00:15
00:20-4,5 °C 0,0 °C 1,1 °C 89 % 1006,1 hPa 0,0 mm - 4,7 km/h 11,2 km/h SSW 0,0 W/qm 0,0 nein 00:20
00:25-4,5 °C 0,0 °C 1,1 °C 89 % 1006,0 hPa 0,0 mm - 4,7 km/h 11,2 km/h S 0,0 W/qm 0,0 nein 00:25
00:30-4,5 °C 0,0 °C 1,1 °C 89 % 1006,0 hPa 0,0 mm - 4,7 km/h 11,2 km/h S 0,0 W/qm 0,0 nein 00:30
00:35-4,5 °C 0,0 °C 1,1 °C 89 % 1005,9 hPa 0,0 mm - 3,2 km/h 11,2 km/h SSO 0,0 W/qm 0,0 nein 00:35
00:40-4,5 °C 0,0 °C 1,1 °C 89 % 1005,9 hPa 0,0 mm - 3,2 km/h 11,2 km/h O 0,0 W/qm 0,0 nein 00:40
00:45-4,5 °C 0,0 °C 1,1 °C 89 % 1005,8 hPa 0,0 mm - 4,7 km/h 9,7 km/h OSO 0,0 W/qm 0,0 nein 00:45
00:50-4,5 °C 0,0 °C 1,1 °C 89 % 1005,8 hPa 0,0 mm - 3,2 km/h 9,7 km/h SSO 0,0 W/qm 0,0 nein 00:50
00:55-4,5 °C 0,0 °C 1,1 °C 89 % 1005,7 hPa 0,0 mm - 3,2 km/h 9,7 km/h SO 0,0 W/qm 0,0 nein 00:55
01:00-4,6 °C 0,0 °C 1,1 °C 89 % 1005,6 hPa 0,0 mm - 3,2 km/h 9,7 km/h S 0,0 W/qm 0,0 nein 01:00
01:05-4,5 °C 0,0 °C 1,1 °C 89 % 1005,6 hPa 0,0 mm 0,0 mm 3,2 km/h 9,7 km/h SSO 0,0 W/qm 0,0 nein 01:05
01:10-4,6 °C 0,0 °C 1,1 °C 89 % 1005,5 hPa 0,0 mm 0,0 mm 3,2 km/h 9,7 km/h SSO 0,0 W/qm 0,0 nein 01:10
01:15-4,5 °C 0,0 °C 1,1 °C 89 % 1005,4 hPa 0,0 mm - 1,4 km/h 9,7 km/h SSO 0,0 W/qm 0,0 nein 01:15
01:20-4,6 °C 0,0 °C 1,1 °C 89 % 1005,4 hPa 0,0 mm - 1,4 km/h 7,9 km/h SSO 0,0 W/qm 0,0 nein 01:20
01:25-4,5 °C 0,0 °C 1,1 °C 89 % 1005,5 hPa 0,0 mm - 3,2 km/h 7,9 km/h SSW 0,0 W/qm 0,0 nein 01:25
01:30-4,6 °C 0,0 °C 1,1 °C 89 % 1005,3 hPa 0,0 mm - 3,2 km/h 7,9 km/h S 0,0 W/qm 0,0 nein 01:30
01:35-4,5 °C 0,0 °C 1,1 °C 89 % 1005,3 hPa 0,0 mm - 1,4 km/h 7,9 km/h S 0,0 W/qm 0,0 nein 01:35
01:40-4,6 °C 0,0 °C 1,1 °C 89 % 1005,2 hPa 0,0 mm - 3,2 km/h 7,9 km/h S 0,0 W/qm 0,0 nein 01:40
01:45-4,6 °C 0,0 °C 1,1 °C 89 % 1005,2 hPa 0,0 mm - 6,5 km/h 13,0 km/h S 0,0 W/qm 0,0 nein 01:45
01:50-4,7 °C 0,0 °C 1,1 °C 89 % 1005,1 hPa 0,0 mm - 4,7 km/h 13,0 km/h SSW 0,0 W/qm 0,0 nein 01:50
01:55-4,7 °C 0,0 °C 1,1 °C 88 % 1005,1 hPa 0,0 mm - 4,7 km/h 14,4 km/h S 0,0 W/qm 0,0 nein 01:55
UhrzeitTemperaturBoden 10cmBoden 20cmFeuchteLuftdruckNiederschlagEvapotranspirationWindWindböenWindrichtungSolarstrahlungUV-IndexSonne?Uhrzeit
02:00-4,7 °C 0,0 °C 1,1 °C 88 % 1005,0 hPa 0,0 mm - 6,5 km/h 14,4 km/h S 0,0 W/qm 0,0 nein 02:00
02:05-4,7 °C 0,0 °C 1,1 °C 88 % 1005,0 hPa 0,0 mm 0,0 mm 4,7 km/h 13,0 km/h SO 0,0 W/qm 0,0 nein 02:05
02:10-4,7 °C 0,0 °C 1,1 °C 88 % 1004,9 hPa 0,0 mm 0,0 mm 3,2 km/h 13,0 km/h S 0,0 W/qm 0,0 nein 02:10
02:15-4,8 °C 0,0 °C 1,1 °C 88 % 1004,8 hPa 0,0 mm - 1,4 km/h 9,7 km/h SO 0,0 W/qm 0,0 nein 02:15
02:20-4,8 °C 0,0 °C 1,1 °C 88 % 1004,8 hPa 0,0 mm - 3,2 km/h 7,9 km/h SO 0,0 W/qm 0,0 nein 02:20
02:25-4,8 °C 0,0 °C 1,1 °C 88 % 1004,7 hPa 0,0 mm - 3,2 km/h 9,7 km/h OSO 0,0 W/qm 0,0 nein 02:25
02:30-4,9 °C 0,0 °C 1,1 °C 88 % 1004,6 hPa 0,0 mm - 4,7 km/h 9,7 km/h SW 0,0 W/qm 0,0 nein 02:30
02:35-4,9 °C 0,0 °C 1,1 °C 88 % 1004,5 hPa 0,0 mm - 4,7 km/h 11,2 km/h SSW 0,0 W/qm 0,0 nein 02:35
02:40-4,9 °C 0,0 °C 1,1 °C 88 % 1004,5 hPa 0,0 mm - 4,7 km/h 13,0 km/h SSO 0,0 W/qm 0,0 nein 02:40
02:45-4,9 °C 0,0 °C 1,1 °C 88 % 1004,4 hPa 0,0 mm - 3,2 km/h 13,0 km/h SSO 0,0 W/qm 0,0 nein 02:45
02:50-4,9 °C 0,0 °C 1,1 °C 88 % 1004,4 hPa 0,0 mm - 3,2 km/h 13,0 km/h S 0,0 W/qm 0,0 nein 02:50
02:55-4,9 °C 0,0 °C 1,1 °C 88 % 1004,3 hPa 0,0 mm - 3,2 km/h 11,2 km/h S 0,0 W/qm 0,0 nein 02:55
03:00-4,9 °C 0,0 °C 1,1 °C 88 % 1004,3 hPa 0,0 mm - 4,7 km/h 9,7 km/h S 0,0 W/qm 0,0 nein 03:00
03:05-4,9 °C 0,0 °C 1,1 °C 88 % 1004,2 hPa 0,0 mm 0,0 mm 4,7 km/h 11,2 km/h SSO 0,0 W/qm 0,0 nein 03:05
03:10-4,9 °C 0,0 °C 1,1 °C 88 % 1004,2 hPa 0,0 mm 0,0 mm 4,7 km/h 13,0 km/h SSO 0,0 W/qm 0,0 nein 03:10
03:15-4,9 °C 0,0 °C 1,1 °C 88 % 1004,1 hPa 0,0 mm - 3,2 km/h 13,0 km/h S 0,0 W/qm 0,0 nein 03:15
03:20-4,9 °C 0,0 °C 1,1 °C 88 % 1004,1 hPa 0,0 mm - 3,2 km/h 11,2 km/h S 0,0 W/qm 0,0 nein 03:20
03:25-4,9 °C 0,0 °C 1,1 °C 88 % 1004,1 hPa 0,0 mm - 3,2 km/h 11,2 km/h SSW 0,0 W/qm 0,0 nein 03:25
03:30-4,9 °C 0,0 °C 1,1 °C 88 % 1003,9 hPa 0,0 mm - 1,4 km/h 11,2 km/h SSO 0,0 W/qm 0,0 nein 03:30
03:35-4,9 °C 0,0 °C 1,1 °C 88 % 1003,9 hPa 0,0 mm - 1,4 km/h 11,2 km/h S 0,0 W/qm 0,0 nein 03:35
03:40-4,9 °C 0,0 °C 1,1 °C 88 % 1003,8 hPa 0,0 mm - 1,4 km/h 6,5 km/h S 0,0 W/qm 0,0 nein 03:40
03:45-4,9 °C 0,0 °C 1,1 °C 88 % 1003,8 hPa 0,0 mm - 1,4 km/h 6,5 km/h S 0,0 W/qm 0,0 nein 03:45
03:50-4,9 °C 0,0 °C 1,1 °C 88 % 1003,7 hPa 0,0 mm - 1,4 km/h 6,5 km/h S 0,0 W/qm 0,0 nein 03:50
03:55-4,9 °C 0,0 °C 1,1 °C 88 % 1003,7 hPa 0,0 mm - 3,2 km/h 7,9 km/h S 0,0 W/qm 0,0 nein 03:55
UhrzeitTemperaturBoden 10cmBoden 20cmFeuchteLuftdruckNiederschlagEvapotranspirationWindWindböenWindrichtungSolarstrahlungUV-IndexSonne?Uhrzeit
04:00-5,0 °C 0,0 °C 1,1 °C 88 % 1003,6 hPa 0,0 mm - 3,2 km/h 7,9 km/h SSO 0,0 W/qm 0,0 nein 04:00
04:05-5,0 °C 0,0 °C 1,1 °C 88 % 1003,5 hPa 0,0 mm 0,0 mm 4,7 km/h 9,7 km/h S 0,0 W/qm 0,0 nein 04:05
04:10-5,0 °C 0,0 °C 1,1 °C 88 % 1003,4 hPa 0,0 mm 0,0 mm 4,7 km/h 14,4 km/h SSO 0,0 W/qm 0,0 nein 04:10
04:15-5,0 °C 0,0 °C 1,1 °C 88 % 1003,3 hPa 0,0 mm - 4,7 km/h 14,4 km/h SW 0,0 W/qm 0,0 nein 04:15
04:20-5,0 °C 0,0 °C 1,1 °C 88 % 1003,3 hPa 0,0 mm - 4,7 km/h 14,4 km/h S 0,0 W/qm 0,0 nein 04:20
04:25-5,0 °C 0,0 °C 1,1 °C 88 % 1003,2 hPa 0,0 mm - 4,7 km/h 9,7 km/h SSO 0,0 W/qm 0,0 nein 04:25
04:30-5,0 °C 0,0 °C 1,1 °C 88 % 1003,2 hPa 0,0 mm - 4,7 km/h 9,7 km/h S 0,0 W/qm 0,0 nein 04:30
04:35-5,0 °C 0,0 °C 1,1 °C 88 % 1003,1 hPa 0,0 mm - 4,7 km/h 11,2 km/h S 0,0 W/qm 0,0 nein 04:35
04:40-5,0 °C 0,0 °C 1,1 °C 88 % 1003,1 hPa 0,0 mm - 4,7 km/h 11,2 km/h S 0,0 W/qm 0,0 nein 04:40
04:45-4,9 °C 0,0 °C 1,1 °C 88 % 1003,0 hPa 0,0 mm - 3,2 km/h 11,2 km/h S 0,0 W/qm 0,0 nein 04:45
04:50-4,9 °C 0,0 °C 1,1 °C 88 % 1003,0 hPa 0,0 mm - 1,4 km/h 11,2 km/h SO 0,0 W/qm 0,0 nein 04:50
04:55-4,9 °C 0,0 °C 1,1 °C 88 % 1003,0 hPa 0,0 mm - 1,4 km/h 7,9 km/h SSO 0,0 W/qm 0,0 nein 04:55
05:00-4,9 °C 0,0 °C 1,1 °C 88 % 1002,9 hPa 0,0 mm - 3,2 km/h 7,9 km/h SO 0,0 W/qm 0,0 nein 05:00
05:05-4,9 °C 0,0 °C 1,1 °C 88 % 1002,9 hPa 0,0 mm 0,0 mm 1,4 km/h 7,9 km/h O 0,0 W/qm 0,0 nein 05:05
05:10-4,9 °C 0,0 °C 1,1 °C 88 % 1002,9 hPa 0,0 mm 0,0 mm 0,0 km/h 7,9 km/h SO 0,0 W/qm 0,0 nein 05:10
05:15-4,9 °C 0,0 °C 1,1 °C 88 % 1002,8 hPa 0,0 mm - 1,4 km/h 7,9 km/h SO 0,0 W/qm 0,0 nein 05:15
05:20-5,0 °C 0,0 °C 1,1 °C 88 % 1002,7 hPa 0,0 mm - 1,4 km/h 7,9 km/h SO 0,0 W/qm 0,0 nein 05:20
05:25-5,0 °C 0,0 °C 1,1 °C 88 % 1002,7 hPa 0,0 mm - 1,4 km/h 7,9 km/h SO 0,0 W/qm 0,0 nein 05:25
05:30-5,0 °C 0,0 °C 1,1 °C 88 % 1002,6 hPa 0,0 mm - 1,4 km/h 6,5 km/h S 0,0 W/qm 0,0 nein 05:30
05:35-5,1 °C 0,0 °C 1,1 °C 88 % 1002,6 hPa 0,0 mm - 1,4 km/h 6,5 km/h S 0,0 W/qm 0,0 nein 05:35
05:40-5,1 °C 0,0 °C 1,1 °C 88 % 1002,5 hPa 0,0 mm - 1,4 km/h 6,5 km/h S 0,0 W/qm 0,0 nein 05:40
05:45-5,1 °C 0,0 °C 1,1 °C 88 % 1002,4 hPa 0,0 mm - 1,4 km/h 6,5 km/h NNW 0,0 W/qm 0,0 nein 05:45
05:50-5,1 °C 0,0 °C 1,1 °C 88 % 1002,4 hPa 0,0 mm - 1,4 km/h 9,7 km/h S 0,0 W/qm 0,0 nein 05:50
05:55-5,1 °C 0,0 °C 1,1 °C 88 % 1002,4 hPa 0,0 mm - 1,4 km/h 9,7 km/h S 0,0 W/qm 0,0 nein 05:55
UhrzeitTemperaturBoden 10cmBoden 20cmFeuchteLuftdruckNiederschlagEvapotranspirationWindWindböenWindrichtungSolarstrahlungUV-IndexSonne?Uhrzeit
06:00-5,1 °C 0,0 °C 1,1 °C 88 % 1002,4 hPa 0,0 mm - 3,2 km/h 9,7 km/h SSO 0,0 W/qm 0,0 nein 06:00
06:05-5,1 °C 0,0 °C 1,1 °C 88 % 1002,3 hPa 0,0 mm 0,0 mm 3,2 km/h 9,7 km/h SSO 0,0 W/qm 0,0 nein 06:05
06:10-5,2 °C 0,0 °C 1,1 °C 88 % 1002,3 hPa 0,0 mm 0,0 mm 3,2 km/h 9,7 km/h SSO 0,0 W/qm 0,0 nein 06:10
06:15-5,2 °C 0,0 °C 1,1 °C 88 % 1002,3 hPa 0,0 mm - 3,2 km/h 7,9 km/h SSO 0,0 W/qm 0,0 nein 06:15
06:20-5,2 °C 0,0 °C 1,1 °C 88 % 1002,3 hPa 0,0 mm - 3,2 km/h 9,7 km/h S 0,0 W/qm 0,0 nein 06:20
06:25-5,2 °C 0,0 °C 1,1 °C 88 % 1002,3 hPa 0,0 mm - 4,7 km/h 9,7 km/h SSO 0,0 W/qm 0,0 nein 06:25
06:30-5,2 °C 0,0 °C 1,1 °C 88 % 1002,2 hPa 0,0 mm - 3,2 km/h 11,2 km/h S 0,0 W/qm 0,0 nein 06:30
06:35-5,2 °C 0,0 °C 1,1 °C 88 % 1002,3 hPa 0,0 mm - 3,2 km/h 11,2 km/h SSO 0,0 W/qm 0,0 nein 06:35
06:40-5,2 °C 0,0 °C 1,1 °C 88 % 1002,3 hPa 0,0 mm - 3,2 km/h 9,7 km/h SSO 0,0 W/qm 0,0 nein 06:40
06:45-5,2 °C 0,0 °C 1,1 °C 88 % 1002,3 hPa 0,0 mm - 1,4 km/h 9,7 km/h S 0,0 W/qm 0,0 nein 06:45
06:50-5,2 °C 0,0 °C 1,1 °C 88 % 1002,2 hPa 0,0 mm - 1,4 km/h 7,9 km/h S 0,0 W/qm 0,0 nein 06:50
06:55-5,2 °C 0,0 °C 1,1 °C 88 % 1002,1 hPa 0,0 mm - 1,4 km/h 7,9 km/h OSO 0,0 W/qm 0,0 nein 06:55
07:00-5,2 °C 0,0 °C 1,1 °C 88 % 1002,1 hPa 0,0 mm - 1,4 km/h 6,5 km/h S 0,0 W/qm 0,0 nein 07:00
07:05-5,2 °C 0,0 °C 1,1 °C 88 % 1002,2 hPa 0,0 mm 0,0 mm 1,4 km/h 4,7 km/h OSO 0,0 W/qm 0,0 nein 07:05
07:10-5,2 °C 0,0 °C 1,1 °C 88 % 1002,2 hPa 0,0 mm 0,0 mm 1,4 km/h 6,5 km/h S 0,0 W/qm 0,0 nein 07:10
07:15-5,2 °C 0,0 °C 1,1 °C 88 % 1002,2 hPa 0,0 mm - 0,0 km/h 6,5 km/h SSO 0,0 W/qm 0,0 nein 07:15
07:20-5,2 °C 0,0 °C 1,1 °C 88 % 1002,1 hPa 0,0 mm - 1,4 km/h 6,5 km/h O 0,0 W/qm 0,0 nein 07:20
07:25-5,2 °C 0,0 °C 1,1 °C 89 % 1002,1 hPa 0,0 mm - 1,4 km/h 7,9 km/h SSO 0,0 W/qm 0,0 nein 07:25
07:30-5,2 °C 0,0 °C 1,1 °C 88 % 1002,1 hPa 0,0 mm - 1,4 km/h 7,9 km/h NO 0,0 W/qm 0,0 nein 07:30
07:35-5,2 °C 0,0 °C 1,1 °C 89 % 1002,0 hPa 0,0 mm - 1,4 km/h 7,9 km/h SW 0,0 W/qm 0,0 nein 07:35
07:40-5,2 °C 0,0 °C 1,1 °C 89 % 1002,1 hPa 0,0 mm - 1,4 km/h 7,9 km/h S 0,0 W/qm 0,0 nein 07:40
07:45-5,2 °C 0,0 °C 1,1 °C 89 % 1002,1 hPa 0,0 mm - 1,4 km/h 7,9 km/h S 0,0 W/qm 0,0 nein 07:45
07:50-5,2 °C 0,0 °C 1,1 °C 88 % 1002,1 hPa 0,0 mm - 3,2 km/h 7,9 km/h S 0,0 W/qm 0,0 nein 07:50
07:55-5,3 °C 0,0 °C 1,1 °C 88 % 1002,0 hPa 0,0 mm - 3,2 km/h 9,7 km/h O 0,0 W/qm 0,0 nein 07:55
UhrzeitTemperaturBoden 10cmBoden 20cmFeuchteLuftdruckNiederschlagEvapotranspirationWindWindböenWindrichtungSolarstrahlungUV-IndexSonne?Uhrzeit
08:00-5,3 °C 0,0 °C 1,1 °C 88 % 1002,0 hPa 0,0 mm - 3,2 km/h 13,0 km/h SO 0,0 W/qm 0,0 nein 08:00
08:05-5,3 °C 0,0 °C 1,1 °C 88 % 1001,9 hPa 0,0 mm 0,0 mm 3,2 km/h 13,0 km/h ONO 0,0 W/qm 0,0 nein 08:05
08:10-5,3 °C 0,0 °C 1,1 °C 88 % 1001,8 hPa 0,0 mm 0,0 mm 4,7 km/h 13,0 km/h SSO 5,0 W/qm 0,0 nein 08:10
08:15-5,4 °C 0,0 °C 1,1 °C 88 % 1001,8 hPa 0,0 mm - 4,7 km/h 13,0 km/h SSW 9,0 W/qm 0,0 nein 08:15
08:20-5,4 °C 0,0 °C 1,1 °C 88 % 1001,8 hPa 0,0 mm - 3,2 km/h 13,0 km/h SSO 9,0 W/qm 0,0 nein 08:20
08:25-5,4 °C 0,0 °C 1,1 °C 88 % 1001,8 hPa 0,0 mm - 3,2 km/h 13,0 km/h S 11,0 W/qm 0,0 nein 08:25
08:30-5,4 °C 0,0 °C 1,1 °C 88 % 1001,9 hPa 0,0 mm - 3,2 km/h 11,2 km/h SSO 12,0 W/qm 0,0 nein 08:30
08:35-5,3 °C 0,0 °C 1,1 °C 88 % 1001,9 hPa 0,0 mm - 3,2 km/h 9,7 km/h S 16,0 W/qm 0,0 nein 08:35
08:40-5,3 °C 0,0 °C 1,1 °C 88 % 1001,9 hPa 0,0 mm - 3,2 km/h 9,7 km/h SSO 14,0 W/qm 0,0 nein 08:40
08:45-5,3 °C 0,0 °C 1,1 °C 88 % 1001,8 hPa 0,0 mm - 4,7 km/h 13,0 km/h SSO 11,0 W/qm 0,0 nein 08:45
08:50-5,3 °C 0,0 °C 1,1 °C 88 % 1001,8 hPa 0,0 mm - 3,2 km/h 13,0 km/h SSW 11,0 W/qm 0,0 nein 08:50
08:55-5,3 °C 0,0 °C 1,1 °C 88 % 1001,8 hPa 0,0 mm - 3,2 km/h 11,2 km/h SSO 12,0 W/qm 0,0 nein 08:55
09:00-5,3 °C 0,0 °C 1,1 °C 88 % 1001,8 hPa 0,0 mm - 3,2 km/h 9,7 km/h SSO 16,0 W/qm 0,0 nein 09:00
09:05-5,4 °C 0,0 °C 1,1 °C 88 % 1001,8 hPa 0,0 mm 0,0 mm 3,2 km/h 9,7 km/h SO 18,0 W/qm 0,0 nein 09:05
09:10-5,3 °C 0,0 °C 1,1 °C 88 % 1001,8 hPa 0,0 mm 0,0 mm 3,2 km/h 9,7 km/h OSO 19,0 W/qm 0,0 nein 09:10
09:15-5,3 °C 0,0 °C 1,1 °C 88 % 1001,7 hPa 0,0 mm - 3,2 km/h 9,7 km/h SSW 23,0 W/qm 0,0 nein 09:15
09:20-5,3 °C 0,0 °C 1,1 °C 88 % 1001,7 hPa 0,0 mm - 3,2 km/h 11,2 km/h SSO 25,0 W/qm 0,0 nein 09:20
09:25-5,3 °C 0,0 °C 1,1 °C 88 % 1001,7 hPa 0,0 mm - 3,2 km/h 11,2 km/h SSO 25,0 W/qm 0,0 nein 09:25
09:30-5,3 °C 0,0 °C 1,1 °C 88 % 1001,7 hPa 0,0 mm - 4,7 km/h 11,2 km/h SSO 28,0 W/qm 0,0 nein 09:30
09:35-5,3 °C 0,0 °C 1,1 °C 88 % 1001,6 hPa 0,0 mm - 3,2 km/h 17,6 km/h SO 30,0 W/qm 0,0 nein 09:35
09:40-5,2 °C 0,0 °C 1,1 °C 88 % 1001,6 hPa 0,0 mm - 3,2 km/h 17,6 km/h SSO 26,0 W/qm 0,0 nein 09:40
09:45-5,2 °C 0,0 °C 1,1 °C 88 % 1001,6 hPa 0,0 mm - 3,2 km/h 17,6 km/h SSO 23,0 W/qm 0,0 nein 09:45
09:50-5,2 °C 0,0 °C 1,1 °C 88 % 1001,5 hPa 0,0 mm - 3,2 km/h 13,0 km/h SO 23,0 W/qm 0,0 nein 09:50
09:55-5,2 °C 0,0 °C 1,1 °C 88 % 1001,5 hPa 0,0 mm - 3,2 km/h 13,0 km/h SSO 28,0 W/qm 0,0 nein 09:55
UhrzeitTemperaturBoden 10cmBoden 20cmFeuchteLuftdruckNiederschlagEvapotranspirationWindWindböenWindrichtungSolarstrahlungUV-IndexSonne?Uhrzeit
10:00-5,2 °C 0,0 °C 1,1 °C 88 % 1001,5 hPa 0,0 mm - 3,2 km/h 11,2 km/h S 35,0 W/qm 0,0 nein 10:00
10:05-5,1 °C 0,0 °C 1,1 °C 88 % 1001,4 hPa 0,0 mm 0,0 mm 3,2 km/h 11,2 km/h S 42,0 W/qm 0,0 nein 10:05
10:10-5,1 °C 0,0 °C 1,1 °C 88 % 1001,4 hPa 0,0 mm 0,0 mm 1,4 km/h 11,2 km/h SSO 42,0 W/qm 0,0 nein 10:10
10:15-5,1 °C 0,0 °C 1,1 °C 88 % 1001,4 hPa 0,0 mm - 1,4 km/h 9,7 km/h SSO 46,0 W/qm 0,0 nein 10:15
10:20-5,1 °C 0,0 °C 1,1 °C 88 % 1001,4 hPa 0,0 mm - 3,2 km/h 7,9 km/h S 47,0 W/qm 0,0 nein 10:20
10:25-5,0 °C 0,0 °C 1,1 °C 87 % 1001,4 hPa 0,0 mm - 3,2 km/h 9,7 km/h S 42,0 W/qm 0,0 nein 10:25
Gesamt: -5,0 °C 0,0 °C 1,1 °C 88 % 1003,3 hPa 0,0 mm 0,0 mm 3,1 km/h 10,3 km/h 0 5,1 W/qm 0,0 nein

Insgesamt 126 Zeilen mal 13 Spalten = 1638 Werte werden angezeigt.

www.wetter-rosstal.de   •   www.wetter-franken.de   •   www.lightningmaps.org   •   Start   •   Kontakt / Datenschutz   •   PC-Kümmerer